Time;durP1;ratioP1;P1;durP2;ratioP2;P2;SDS_P1;SDS_P2;PMS_P1;PMS_P2;Temp;Humidity;BMP_temperature;BMP_pressure;BME280_temperature;BME280_humidity;BME280_pressure;Samples;Min_cycle;Max_cycle;Signal;HPM_P1;HPM_P2
2023/05/20 00:00:50;;;;;;;0.85;0.80;;;;;;;;;;5030369;28;20518;-80
2023/05/20 00:03:16;;;;;;;1.35;0.80;;;;;;;;;;5025648;28;20025;-80
2023/05/20 00:05:42;;;;;;;4.18;1.10;;;;;;;;;;5019304;28;20071;-80
2023/05/20 00:08:09;;;;;;;1.45;0.98;;;;;;;;;;5023694;28;20029;-79
2023/05/20 00:10:35;;;;;;;0.63;0.63;;;;;;;;;;5029755;28;20140;-79
2023/05/20 00:13:02;;;;;;;0.80;0.55;;;;;;;;;;5027443;28;20029;-79
2023/05/20 00:15:28;;;;;;;1.23;0.85;;;;;;;;;;5037218;28;20025;-79
2023/05/20 00:17:54;;;;;;;1.60;0.65;;;;;;;;;;5028594;28;20045;-79
2023/05/20 00:20:20;;;;;;;1.95;0.82;;;;;;;;;;5025905;28;20025;-80
2023/05/20 00:22:46;;;;;;;6.28;0.80;;;;;;;;;;5026713;28;20037;-80
2023/05/20 00:25:15;;;;;;;1.23;0.80;;;;;;;;;;5026093;28;20463;-81
2023/05/20 00:27:41;;;;;;;0.93;0.85;;;;;;;;;;5027983;28;20388;-80
2023/05/20 00:30:08;;;;;;;1.00;0.88;;;;;;;;;;5026463;28;20022;-80
2023/05/20 00:32:34;;;;;;;1.33;0.90;;;;;;;;;;5026793;28;20033;-80
2023/05/20 00:35:00;;;;;;;0.63;0.55;;;;;;;;;;5029044;28;20025;-79
2023/05/20 00:37:27;;;;;;;0.60;0.60;;;;;;;;;;5026714;28;20021;-80
2023/05/20 00:39:52;;;;;;;0.90;0.70;;;;;;;;;;5025653;28;20120;-79
2023/05/20 00:42:22;;;;;;;0.63;0.52;;;;;;;;;;5027110;28;20046;-80
2023/05/20 00:44:48;;;;;;;0.70;0.65;;;;;;;;;;5025593;28;20036;-80
2023/05/20 00:47:15;;;;;;;0.90;0.77;;;;;;;;;;5025805;28;20026;-80
2023/05/20 00:49:41;;;;;;;0.70;0.70;;;;;;;;;;5026655;28;20064;-80
2023/05/20 00:52:07;;;;;;;1.88;0.70;;;;;;;;;;5024270;28;20030;-80
2023/05/20 00:54:33;;;;;;;0.50;0.45;;;;;;;;;;5025664;28;20029;-79
2023/05/20 00:57:01;;;;;;;0.77;0.70;;;;;;;;;;5032490;28;20039;-80
2023/05/20 00:59:27;;;;;;;0.60;0.60;;;;;;;;;;5026735;28;20062;-80
2023/05/20 01:01:54;;;;;;;1.17;0.77;;;;;;;;;;5026893;28;20030;-80
2023/05/20 01:04:20;;;;;;;0.85;0.75;;;;;;;;;;5024885;28;20049;-80
2023/05/20 01:06:46;;;;;;;0.90;0.60;;;;;;;;;;5026132;28;20048;-78
2023/05/20 01:09:13;;;;;;;1.20;0.80;;;;;;;;;;5024713;28;20488;-79
2023/05/20 01:11:44;;;;;;;1.05;0.60;;;;;;;;;;5025536;28;20033;-79
2023/05/20 01:14:12;;;;;;;2.25;0.95;;;;;;;;;;5024886;28;20571;-79
2023/05/20 01:16:38;;;;;;;0.88;0.77;;;;;;;;;;5028486;28;20037;-79
2023/05/20 01:19:11;;;;;;;0.80;0.80;;;;;;;;;;5026879;28;20495;-80
2023/05/20 01:21:38;;;;;;;0.60;0.60;;;;;;;;;;5027652;28;20116;-79
2023/05/20 01:24:04;;;;;;;0.40;0.40;;;;;;;;;;5029053;28;20389;-80
2023/05/20 01:26:32;;;;;;;1.10;0.77;;;;;;;;;;5027134;28;20033;-80
2023/05/20 01:29:03;;;;;;;0.68;0.68;;;;;;;;;;5028976;28;20040;-80
2023/05/20 01:31:32;;;;;;;1.20;0.80;;;;;;;;;;5029097;28;20503;-80
2023/05/20 01:33:58;;;;;;;1.40;0.90;;;;;;;;;;5030940;28;20032;-79
2023/05/20 01:36:26;;;;;;;0.90;0.68;;;;;;;;;;5030993;28;20095;-79
2023/05/20 01:38:52;;;;;;;1.50;0.77;;;;;;;;;;5039899;28;20077;-80
2023/05/20 01:41:19;;;;;;;1.15;0.80;;;;;;;;;;5028415;28;20043;-80
2023/05/20 01:43:45;;;;;;;0.73;0.52;;;;;;;;;;5027096;28;20034;-80
2023/05/20 01:46:11;;;;;;;0.98;0.70;;;;;;;;;;5029962;28;20075;-81
2023/05/20 01:48:37;;;;;;;1.42;0.70;;;;;;;;;;5027461;28;20033;-80
2023/05/20 01:51:03;;;;;;;1.00;0.73;;;;;;;;;;5027121;28;20813;-79
2023/05/20 01:53:29;;;;;;;0.75;0.65;;;;;;;;;;5027334;28;20171;-80
2023/05/20 01:55:55;;;;;;;0.73;0.70;;;;;;;;;;5028667;28;20033;-79
2023/05/20 01:58:21;;;;;;;0.70;0.60;;;;;;;;;;5028350;28;20072;-80
2023/05/20 02:00:47;;;;;;;1.00;0.70;;;;;;;;;;5024842;28;20385;-80
2023/05/20 02:03:13;;;;;;;1.45;0.65;;;;;;;;;;5027283;28;20025;-80
2023/05/20 02:05:40;;;;;;;0.68;0.60;;;;;;;;;;5027335;28;20310;-79
2023/05/20 02:08:06;;;;;;;0.60;0.60;;;;;;;;;;5027405;28;20030;-80
2023/05/20 02:10:32;;;;;;;0.60;0.60;;;;;;;;;;5027547;28;20025;-80
2023/05/20 02:12:58;;;;;;;0.70;0.70;;;;;;;;;;5027199;28;20029;-80
2023/05/20 02:15:24;;;;;;;1.08;0.75;;;;;;;;;;5026660;28;20087;-80
2023/05/20 02:17:50;;;;;;;0.68;0.68;;;;;;;;;;5026433;28;20021;-80
2023/05/20 02:20:16;;;;;;;1.23;0.57;;;;;;;;;;5029360;28;20048;-80
2023/05/20 02:22:42;;;;;;;1.08;0.75;;;;;;;;;;5024364;28;20022;-80
2023/05/20 02:25:08;;;;;;;0.77;0.70;;;;;;;;;;5024153;28;20053;-80
2023/05/20 02:27:34;;;;;;;0.95;0.80;;;;;;;;;;5026130;28;20091;-80
2023/05/20 02:30:00;;;;;;;0.57;0.47;;;;;;;;;;5027619;28;20573;-80
2023/05/20 02:32:27;;;;;;;0.68;0.60;;;;;;;;;;5026170;28;20029;-80
2023/05/20 02:34:56;;;;;;;0.70;0.70;;;;;;;;;;5025545;28;20387;-79
2023/05/20 02:37:22;;;;;;;0.70;0.70;;;;;;;;;;5024481;28;20473;-80
2023/05/20 02:39:48;;;;;;;0.60;0.60;;;;;;;;;;5027400;28;20044;-80
2023/05/20 02:42:14;;;;;;;0.70;0.70;;;;;;;;;;5001062;28;20022;-79
2023/05/20 02:44:40;;;;;;;0.65;0.50;;;;;;;;;;5025627;28;20083;-80
2023/05/20 02:47:06;;;;;;;0.52;0.52;;;;;;;;;;5026050;28;20037;-80
2023/05/20 02:49:32;;;;;;;0.50;0.50;;;;;;;;;;5028567;28;20095;-80
2023/05/20 02:51:58;;;;;;;0.85;0.70;;;;;;;;;;5025946;28;20018;-80
2023/05/20 02:54:24;;;;;;;0.77;0.73;;;;;;;;;;5026175;28;20715;-81
2023/05/20 02:56:50;;;;;;;0.80;0.75;;;;;;;;;;5026604;28;20531;-80
2023/05/20 02:59:16;;;;;;;0.80;0.60;;;;;;;;;;5027672;28;20456;-81
2023/05/20 03:01:42;;;;;;;1.30;0.85;;;;;;;;;;5026218;28;20715;-80
2023/05/20 03:04:08;;;;;;;1.38;0.90;;;;;;;;;;5023600;28;20033;-80
2023/05/20 03:06:34;;;;;;;0.98;0.80;;;;;;;;;;5026188;28;20038;-80
2023/05/20 03:09:00;;;;;;;1.23;0.70;;;;;;;;;;5025224;28;20031;-80
2023/05/20 03:11:26;;;;;;;6.38;0.80;;;;;;;;;;5026503;28;20049;-80
2023/05/20 03:13:52;;;;;;;0.73;0.63;;;;;;;;;;5009002;28;20013;-80
2023/05/20 03:16:18;;;;;;;1.00;0.82;;;;;;;;;;5008030;28;20018;-80
2023/05/20 03:18:45;;;;;;;1.45;0.88;;;;;;;;;;5026575;28;20033;-80
2023/05/20 03:21:11;;;;;;;0.57;0.57;;;;;;;;;;5026021;28;20020;-80
2023/05/20 03:23:36;;;;;;;0.75;0.55;;;;;;;;;;5026901;28;20436;-80
2023/05/20 03:26:02;;;;;;;0.82;0.70;;;;;;;;;;5024612;28;20451;-80
2023/05/20 03:28:28;;;;;;;2.78;0.80;;;;;;;;;;5026333;28;20033;-81
2023/05/20 03:30:54;;;;;;;0.50;0.50;;;;;;;;;;5025889;28;20028;-80
2023/05/20 03:33:21;;;;;;;0.70;0.65;;;;;;;;;;5026129;28;20121;-80
2023/05/20 03:35:47;;;;;;;1.45;0.80;;;;;;;;;;5024353;28;20028;-80
2023/05/20 03:38:13;;;;;;;1.17;0.80;;;;;;;;;;5025576;28;20389;-82
2023/05/20 03:40:39;;;;;;;0.90;0.70;;;;;;;;;;5025759;28;20037;-80
2023/05/20 03:43:05;;;;;;;0.52;0.50;;;;;;;;;;5024822;28;20052;-81
2023/05/20 03:45:33;;;;;;;1.23;0.60;;;;;;;;;;5026602;28;20037;-80
2023/05/20 03:47:59;;;;;;;0.50;0.50;;;;;;;;;;5027070;28;20033;-80
2023/05/20 03:50:25;;;;;;;0.73;0.70;;;;;;;;;;5026042;28;20021;-80
2023/05/20 03:52:51;;;;;;;0.80;0.57;;;;;;;;;;5025114;28;20023;-80
2023/05/20 03:55:19;;;;;;;1.58;1.08;;;;;;;;;;5026199;28;20026;-80
2023/05/20 03:57:45;;;;;;;1.10;0.75;;;;;;;;;;5026383;28;20116;-80
2023/05/20 04:00:13;;;;;;;1.25;0.52;;;;;;;;;;5024842;28;20037;-80
2023/05/20 04:02:39;;;;;;;0.60;0.60;;;;;;;;;;5025709;28;20022;-80
2023/05/20 04:05:07;;;;;;;0.88;0.70;;;;;;;;;;5023279;28;20431;-80
2023/05/20 04:07:34;;;;;;;1.35;0.80;;;;;;;;;;5026286;28;20088;-80
2023/05/20 04:10:00;;;;;;;1.05;0.68;;;;;;;;;;5025495;28;20049;-80
2023/05/20 04:12:29;;;;;;;0.60;0.60;;;;;;;;;;5023786;28;20026;-80
2023/05/20 04:14:57;;;;;;;1.00;0.70;;;;;;;;;;5025633;28;20431;-80
2023/05/20 04:17:22;;;;;;;0.60;0.60;;;;;;;;;;5023785;28;20060;-80
2023/05/20 04:19:48;;;;;;;0.95;0.57;;;;;;;;;;5025061;28;20037;-80
2023/05/20 04:22:14;;;;;;;0.70;0.70;;;;;;;;;;5026426;28;20026;-80
2023/05/20 04:24:40;;;;;;;0.68;0.68;;;;;;;;;;5022941;28;20025;-80
2023/05/20 04:27:06;;;;;;;0.63;0.63;;;;;;;;;;5028822;28;20059;-80
2023/05/20 04:29:33;;;;;;;0.75;0.75;;;;;;;;;;5025601;28;20234;-80
2023/05/20 04:31:59;;;;;;;3.45;1.00;;;;;;;;;;5022271;28;20018;-80
2023/05/20 04:34:28;;;;;;;0.40;0.40;;;;;;;;;;5021008;28;20484;-80
2023/05/20 04:36:56;;;;;;;1.00;0.80;;;;;;;;;;5017563;28;20048;-80
2023/05/20 04:39:22;;;;;;;0.77;0.50;;;;;;;;;;5008164;28;20472;-80
2023/05/20 04:41:48;;;;;;;1.85;1.17;;;;;;;;;;5025364;28;20036;-80
2023/05/20 04:44:14;;;;;;;0.93;0.70;;;;;;;;;;5025891;28;20030;-80
2023/05/20 04:46:40;;;;;;;1.45;0.70;;;;;;;;;;5024482;28;20568;-81
2023/05/20 04:49:06;;;;;;;0.65;0.57;;;;;;;;;;5021663;28;20724;-80
2023/05/20 04:51:34;;;;;;;1.10;0.90;;;;;;;;;;5030179;28;20029;-80
2023/05/20 04:54:00;;;;;;;0.70;0.70;;;;;;;;;;5028871;28;20025;-80
2023/05/20 04:56:26;;;;;;;0.82;0.70;;;;;;;;;;5029258;28;20384;-81
2023/05/20 04:58:52;;;;;;;0.60;0.60;;;;;;;;;;5028617;28;20029;-80
2023/05/20 05:01:18;;;;;;;0.55;0.55;;;;;;;;;;5028358;28;20438;-80
2023/05/20 05:03:44;;;;;;;0.63;0.50;;;;;;;;;;5025965;28;20503;-80
2023/05/20 05:06:10;;;;;;;0.88;0.60;;;;;;;;;;5026469;28;20466;-80
2023/05/20 05:08:36;;;;;;;0.60;0.60;;;;;;;;;;5022316;28;20149;-80
2023/05/20 05:11:05;;;;;;;2.97;0.90;;;;;;;;;;5027852;28;20029;-80
2023/05/20 05:13:31;;;;;;;1.50;0.80;;;;;;;;;;5028300;28;20026;-80
2023/05/20 05:15:58;;;;;;;0.80;0.60;;;;;;;;;;5027651;28;20030;-80
2023/05/20 05:18:24;;;;;;;0.90;0.90;;;;;;;;;;5024068;28;20120;-80
2023/05/20 05:20:50;;;;;;;1.27;0.82;;;;;;;;;;5025915;28;20033;-80
2023/05/20 05:23:16;;;;;;;1.48;0.77;;;;;;;;;;5029597;28;20025;-80
2023/05/20 05:25:42;;;;;;;0.60;0.55;;;;;;;;;;5027120;28;20095;-80
2023/05/20 05:28:08;;;;;;;0.70;0.70;;;;;;;;;;5028734;28;20047;-81
2023/05/20 05:30:34;;;;;;;0.57;0.57;;;;;;;;;;5027579;28;20025;-80
2023/05/20 05:33:00;;;;;;;1.23;1.00;;;;;;;;;;5027756;28;20033;-80
2023/05/20 05:35:26;;;;;;;0.73;0.73;;;;;;;;;;5028736;28;20386;-80
2023/05/20 05:37:52;;;;;;;0.93;0.75;;;;;;;;;;5028239;28;20026;-81
2023/05/20 05:40:18;;;;;;;1.05;0.70;;;;;;;;;;5025675;28;20020;-80
2023/05/20 05:42:44;;;;;;;0.63;0.50;;;;;;;;;;5024685;28;20124;-81
2023/05/20 05:45:10;;;;;;;0.77;0.65;;;;;;;;;;5028237;28;20101;-81
2023/05/20 05:47:36;;;;;;;0.95;0.60;;;;;;;;;;5028937;28;20025;-81
2023/05/20 05:50:02;;;;;;;0.70;0.70;;;;;;;;;;5026397;28;20021;-80
2023/05/20 05:52:28;;;;;;;0.85;0.85;;;;;;;;;;5026788;28;20772;-81
2023/05/20 05:54:54;;;;;;;1.15;0.68;;;;;;;;;;5027874;28;20075;-80
2023/05/20 05:57:20;;;;;;;1.20;0.63;;;;;;;;;;5028180;28;20041;-80
2023/05/20 05:59:46;;;;;;;0.82;0.77;;;;;;;;;;5027145;28;20034;-81
2023/05/20 06:02:13;;;;;;;0.75;0.70;;;;;;;;;;5026584;28;20037;-82
2023/05/20 06:04:39;;;;;;;0.60;0.50;;;;;;;;;;5024453;28;20530;-81
2023/05/20 06:07:05;;;;;;;1.20;0.82;;;;;;;;;;5023820;28;20022;-81
2023/05/20 06:09:31;;;;;;;0.80;0.73;;;;;;;;;;5031559;28;20038;-81
2023/05/20 06:11:57;;;;;;;1.45;0.85;;;;;;;;;;5027576;28;20028;-81
2023/05/20 06:14:23;;;;;;;1.50;0.90;;;;;;;;;;5024249;28;20026;-82
2023/05/20 06:16:49;;;;;;;1.65;0.90;;;;;;;;;;5028785;28;20029;-81
2023/05/20 06:19:15;;;;;;;0.90;0.85;;;;;;;;;;5027198;28;20052;-81
2023/05/20 06:21:41;;;;;;;0.60;0.60;;;;;;;;;;5023838;28;20439;-76
2023/05/20 06:24:06;;;;;;;0.80;0.80;;;;;;;;;;5023650;28;20037;-76
2023/05/20 06:26:32;;;;;;;1.23;0.80;;;;;;;;;;5028584;28;20036;-77
2023/05/20 06:28:59;;;;;;;1.83;0.68;;;;;;;;;;5028256;28;20026;-76
2023/05/20 06:31:25;;;;;;;0.52;0.52;;;;;;;;;;5028337;28;20472;-77
2023/05/20 06:33:51;;;;;;;0.95;0.80;;;;;;;;;;5026642;28;20021;-76
2023/05/20 06:36:17;;;;;;;0.60;0.60;;;;;;;;;;5026514;28;20025;-76
2023/05/20 06:38:43;;;;;;;0.88;0.80;;;;;;;;;;5029354;28;20038;-77
2023/05/20 06:41:09;;;;;;;0.68;0.65;;;;;;;;;;5028056;28;20037;-76
2023/05/20 06:43:35;;;;;;;1.33;1.05;;;;;;;;;;5028455;28;20036;-76
2023/05/20 06:46:01;;;;;;;1.55;1.00;;;;;;;;;;5027823;28;20033;-77
2023/05/20 06:48:27;;;;;;;0.93;0.68;;;;;;;;;;5027766;28;20030;-74
2023/05/20 06:50:53;;;;;;;0.77;0.68;;;;;;;;;;5025754;28;20500;-76
2023/05/20 06:53:20;;;;;;;1.33;0.80;;;;;;;;;;5023695;28;20025;-76
2023/05/20 06:55:46;;;;;;;0.98;0.70;;;;;;;;;;5033530;28;20033;-76
2023/05/20 06:58:12;;;;;;;0.82;0.70;;;;;;;;;;5027658;28;20091;-76
2023/05/20 07:00:38;;;;;;;1.48;0.80;;;;;;;;;;5025955;28;20041;-75
2023/05/20 07:03:04;;;;;;;0.65;0.65;;;;;;;;;;5023630;28;20025;-76
2023/05/20 07:05:30;;;;;;;0.85;0.80;;;;;;;;;;5025420;28;20546;-74
2023/05/20 07:07:56;;;;;;;1.98;1.05;;;;;;;;;;5025090;28;20022;-75
2023/05/20 07:10:22;;;;;;;1.38;0.90;;;;;;;;;;5024285;28;20033;-80
2023/05/20 07:12:48;;;;;;;0.77;0.77;;;;;;;;;;5014611;28;20036;-80
2023/05/20 07:15:14;;;;;;;1.05;0.90;;;;;;;;;;5019610;28;20037;-79
2023/05/20 07:17:40;;;;;;;2.42;0.65;;;;;;;;;;5021444;28;20112;-78
2023/05/20 07:20:07;;;;;;;0.77;0.63;;;;;;;;;;5022682;28;20120;-78
2023/05/20 07:22:33;;;;;;;0.73;0.70;;;;;;;;;;5022099;28;20029;-76
2023/05/20 07:25:00;;;;;;;1.98;1.20;;;;;;;;;;5019469;28;20507;-76
2023/05/20 07:27:26;;;;;;;1.77;0.70;;;;;;;;;;5019804;28;20508;-76
2023/05/20 07:29:51;;;;;;;1.58;1.02;;;;;;;;;;5020204;28;20051;-76
2023/05/20 07:32:17;;;;;;;1.63;1.20;;;;;;;;;;5016965;28;20033;-76
2023/05/20 07:34:43;;;;;;;2.30;0.95;;;;;;;;;;5020347;28;20033;-76
2023/05/20 07:37:11;;;;;;;0.90;0.73;;;;;;;;;;5019327;28;20021;-77
2023/05/20 07:39:37;;;;;;;3.28;1.05;;;;;;;;;;5022022;28;20195;-76
2023/05/20 07:42:03;;;;;;;2.75;1.67;;;;;;;;;;5021218;28;20484;-77
2023/05/20 07:44:29;;;;;;;1.63;1.00;;;;;;;;;;5020889;28;20637;-77
2023/05/20 07:46:55;;;;;;;1.92;1.25;;;;;;;;;;5021417;28;20083;-77
2023/05/20 07:49:21;;;;;;;0.77;0.63;;;;;;;;;;5020501;28;20448;-77
2023/05/20 07:51:47;;;;;;;3.13;1.33;;;;;;;;;;5020854;28;20148;-77
2023/05/20 07:54:14;;;;;;;2.25;1.05;;;;;;;;;;5023050;28;20029;-77
2023/05/20 07:56:40;;;;;;;1.13;1.00;;;;;;;;;;5021936;28;20539;-76
2023/05/20 07:59:06;;;;;;;3.13;0.75;;;;;;;;;;5023828;28;20033;-76
2023/05/20 08:01:32;;;;;;;1.52;0.93;;;;;;;;;;5022830;28;20032;-77
2023/05/20 08:03:58;;;;;;;1.25;0.88;;;;;;;;;;5019711;28;20036;-77
2023/05/20 08:06:23;;;;;;;4.65;1.17;;;;;;;;;;5020396;28;20045;-77
2023/05/20 08:08:49;;;;;;;1.80;0.80;;;;;;;;;;5001035;28;20034;-77
2023/05/20 08:11:15;;;;;;;1.10;1.00;;;;;;;;;;5023679;28;20030;-78
2023/05/20 08:13:41;;;;;;;3.75;0.77;;;;;;;;;;5022440;28;20029;-78
2023/05/20 08:16:08;;;;;;;1.80;0.93;;;;;;;;;;5024003;28;20076;-81
2023/05/20 08:18:36;;;;;;;0.82;0.75;;;;;;;;;;5020594;28;20182;-80
2023/05/20 08:21:02;;;;;;;3.15;1.67;;;;;;;;;;5017246;28;20045;-81
2023/05/20 08:23:28;;;;;;;3.42;1.25;;;;;;;;;;5022836;28;20530;-76
2023/05/20 08:25:54;;;;;;;1.85;1.20;;;;;;;;;;5025066;28;20080;-78
2023/05/20 08:28:20;;;;;;;1.35;1.00;;;;;;;;;;5027844;28;20092;-84
2023/05/20 08:30:47;;;;;;;1.73;1.00;;;;;;;;;;5025361;28;20509;-79
2023/05/20 08:33:13;;;;;;;2.67;1.23;;;;;;;;;;5024179;28;20033;-78
2023/05/20 08:35:39;;;;;;;1.23;1.10;;;;;;;;;;5021861;28;20060;-77
2023/05/20 08:38:05;;;;;;;1.63;1.10;;;;;;;;;;5018942;28;20112;-79
2023/05/20 08:40:34;;;;;;;2.15;1.02;;;;;;;;;;5018477;28;20028;-78
2023/05/20 08:43:00;;;;;;;0.90;0.90;;;;;;;;;;5023217;28;20034;-79
2023/05/20 08:45:27;;;;;;;1.27;1.10;;;;;;;;;;5020013;28;20128;-78
2023/05/20 08:47:53;;;;;;;1.48;1.30;;;;;;;;;;5016156;28;20375;-78
2023/05/20 08:50:21;;;;;;;0.98;0.88;;;;;;;;;;5021679;28;20035;-80
2023/05/20 08:52:51;;;;;;;1.27;0.90;;;;;;;;;;5021319;28;20469;-79
2023/05/20 08:55:26;;;;;;;1.58;0.88;;;;;;;;;;5022862;28;20033;-78
2023/05/20 08:57:53;;;;;;;1.17;1.00;;;;;;;;;;5020819;28;20033;-79
2023/05/20 09:00:22;;;;;;;1.73;0.80;;;;;;;;;;5016679;28;20018;-79
2023/05/20 09:02:48;;;;;;;3.05;1.30;;;;;;;;;;5017999;28;20026;-80
2023/05/20 09:05:14;;;;;;;1.40;1.00;;;;;;;;;;5013240;28;21495;-82
2023/05/20 09:07:42;;;;;;;2.42;1.15;;;;;;;;;;5019941;28;20025;-87
2023/05/20 09:10:08;;;;;;;1.02;0.75;;;;;;;;;;5014335;28;20044;-77
2023/05/20 09:12:34;;;;;;;4.22;1.00;;;;;;;;;;5017573;28;20115;-79
2023/05/20 09:15:00;;;;;;;2.35;1.00;;;;;;;;;;5018022;28;20025;-81
2023/05/20 09:17:26;;;;;;;1.45;1.10;;;;;;;;;;5018833;28;20040;-78
2023/05/20 09:19:53;;;;;;;2.38;1.52;;;;;;;;;;5019349;28;20044;-77
2023/05/20 09:22:26;;;;;;;3.10;0.95;;;;;;;;;;5017387;28;20433;-77
2023/05/20 09:24:53;;;;;;;1.02;0.80;;;;;;;;;;5023635;28;20033;-76
2023/05/20 09:27:19;;;;;;;3.88;1.30;;;;;;;;;;5025717;28;20429;-76
2023/05/20 09:29:48;;;;;;;1.95;1.20;;;;;;;;;;5023890;28;20105;-77
2023/05/20 09:32:15;;;;;;;1.35;1.08;;;;;;;;;;5021813;28;20021;-77
2023/05/20 09:34:41;;;;;;;2.67;1.10;;;;;;;;;;5023739;28;20776;-76
2023/05/20 09:37:08;;;;;;;2.38;1.30;;;;;;;;;;5024959;28;20071;-77
2023/05/20 09:39:38;;;;;;;1.02;0.80;;;;;;;;;;5025503;28;20468;-83
2023/05/20 09:42:11;;;;;;;1.20;0.93;;;;;;;;;;5021649;28;20026;-77
2023/05/20 09:44:38;;;;;;;0.80;0.80;;;;;;;;;;5024822;28;20105;-77
2023/05/20 09:47:06;;;;;;;3.15;1.05;;;;;;;;;;5023341;28;20029;-82
2023/05/20 09:49:32;;;;;;;2.08;1.38;;;;;;;;;;5023405;28;20029;-76
2023/05/20 09:51:59;;;;;;;1.65;1.10;;;;;;;;;;5020984;28;20417;-79
2023/05/20 09:54:26;;;;;;;1.30;0.90;;;;;;;;;;5024556;28;20025;-79
2023/05/20 09:56:53;;;;;;;5.32;1.20;;;;;;;;;;5023714;28;20029;-76
2023/05/20 09:59:21;;;;;;;1.90;0.95;;;;;;;;;;5024866;28;20827;-77
2023/05/20 10:01:47;;;;;;;1.58;1.25;;;;;;;;;;5022246;28;20033;-74
2023/05/20 10:04:15;;;;;;;0.87;0.87;;;;;;;;;;4984445;28;1032085;-77
2023/05/20 10:06:44;;;;;;;1.40;1.00;;;;;;;;;;5025552;28;20022;-76
2023/05/20 10:09:23;;;;;;;2.10;1.52;;;;;;;;;;5025975;28;20025;-81
2023/05/20 10:11:58;;;;;;;9.13;1.33;;;;;;;;;;5026016;28;20110;-81
2023/05/20 10:14:28;;;;;;;1.27;1.10;;;;;;;;;;5023607;28;20029;-80
2023/05/20 10:17:06;;;;;;;1.80;1.10;;;;;;;;;;5023809;28;20121;-82
2023/05/20 10:19:33;;;;;;;2.55;1.30;;;;;;;;;;5025735;28;20029;-83
2023/05/20 10:22:04;;;;;;;1.52;1.20;;;;;;;;;;5022979;28;20108;-78
2023/05/20 10:24:34;;;;;;;1.38;1.08;;;;;;;;;;5023082;28;20113;-78
2023/05/20 10:27:04;;;;;;;1.77;1.30;;;;;;;;;;5026073;28;20041;-77
2023/05/20 10:29:30;;;;;;;2.92;1.40;;;;;;;;;;5024754;28;20113;-77
2023/05/20 10:31:56;;;;;;;1.77;1.15;;;;;;;;;;5024260;28;20053;-78
2023/05/20 10:34:22;;;;;;;2.00;1.20;;;;;;;;;;5023551;28;20117;-81
2023/05/20 10:36:54;;;;;;;1.65;1.20;;;;;;;;;;5008419;28;20107;-80
2023/05/20 10:39:28;;;;;;;1.85;1.20;;;;;;;;;;5005919;28;20021;-78
2023/05/20 10:42:05;;;;;;;2.08;1.42;;;;;;;;;;5021080;28;20029;-79
2023/05/20 10:44:40;;;;;;;1.85;1.42;;;;;;;;;;5025762;28;20125;-81
2023/05/20 10:47:06;;;;;;;1.95;1.23;;;;;;;;;;5023721;28;20459;-79
2023/05/20 10:49:35;;;;;;;2.40;1.15;;;;;;;;;;5023662;28;20391;-79
2023/05/20 10:52:01;;;;;;;2.30;1.42;;;;;;;;;;5019896;28;20457;-81
2023/05/20 10:54:28;;;;;;;3.45;1.20;;;;;;;;;;5022171;28;20033;-81
2023/05/20 10:56:54;;;;;;;1.30;0.98;;;;;;;;;;5024864;28;20109;-85
2023/05/20 10:59:21;;;;;;;1.90;1.20;;;;;;;;;;5026247;28;20033;-80
2023/05/20 11:01:47;;;;;;;1.90;1.25;;;;;;;;;;5023131;28;20091;-81
2023/05/20 11:04:15;;;;;;;3.47;1.10;;;;;;;;;;5015981;28;20224;-80
2023/05/20 11:06:49;;;;;;;2.58;1.35;;;;;;;;;;5016424;28;20052;-79
2023/05/20 11:09:16;;;;;;;1.40;1.10;;;;;;;;;;5015185;28;20029;-81
2023/05/20 11:11:42;;;;;;;2.95;1.75;;;;;;;;;;5015850;28;20278;-80
2023/05/20 11:14:12;;;;;;;2.53;1.65;;;;;;;;;;5022389;28;20017;-80
2023/05/20 11:16:38;;;;;;;1.80;1.30;;;;;;;;;;5017244;28;20203;-80
2023/05/20 11:19:07;;;;;;;3.38;2.05;;;;;;;;;;5004782;28;20536;-80
2023/05/20 11:21:33;;;;;;;1.70;1.42;;;;;;;;;;5014249;28;20038;-81
2023/05/20 11:23:59;;;;;;;2.08;1.25;;;;;;;;;;5015785;28;20025;-80
2023/05/20 11:26:25;;;;;;;2.45;1.55;;;;;;;;;;5020689;28;20373;-80
2023/05/20 11:28:51;;;;;;;2.65;1.55;;;;;;;;;;5019784;28;20048;-80
2023/05/20 11:31:18;;;;;;;3.08;1.40;;;;;;;;;;5017129;28;20024;-80
2023/05/20 11:33:44;;;;;;;2.30;1.50;;;;;;;;;;5017966;28;20167;-81
2023/05/20 11:36:12;;;;;;;2.63;1.83;;;;;;;;;;5020752;28;20487;-81
2023/05/20 11:38:40;;;;;;;1.60;1.15;;;;;;;;;;5019609;28;20032;-81
2023/05/20 11:41:06;;;;;;;1.48;1.38;;;;;;;;;;5016792;28;20599;-81
2023/05/20 11:43:33;;;;;;;3.85;2.15;;;;;;;;;;5014976;28;20034;-79
2023/05/20 11:45:59;;;;;;;1.73;1.40;;;;;;;;;;5015195;28;20022;-80
2023/05/20 11:48:25;;;;;;;2.60;1.70;;;;;;;;;;5015935;28;20475;-79
2023/05/20 11:50:53;;;;;;;1.83;1.52;;;;;;;;;;5021168;28;20029;-80
2023/05/20 11:53:20;;;;;;;2.70;1.50;;;;;;;;;;5018837;28;20516;-81
2023/05/20 11:55:52;;;;;;;3.28;1.70;;;;;;;;;;5018507;28;20078;-79
2023/05/20 11:58:19;;;;;;;1.52;1.33;;;;;;;;;;5026458;28;20030;-80
2023/05/20 12:00:45;;;;;;;2.88;2.00;;;;;;;;;;5018097;28;20075;-80
2023/05/20 12:03:11;;;;;;;3.03;1.60;;;;;;;;;;5020313;28;20117;-81
2023/05/20 12:05:38;;;;;;;2.67;1.92;;;;;;;;;;5020778;28;20038;-79
2023/05/20 12:08:04;;;;;;;2.15;1.23;;;;;;;;;;5017579;28;20112;-79
2023/05/20 12:10:30;;;;;;;5.28;1.63;;;;;;;;;;5021527;28;20112;-79
2023/05/20 12:12:57;;;;;;;1.85;1.30;;;;;;;;;;5007479;28;20013;-79
2023/05/20 12:15:23;;;;;;;1.92;1.35;;;;;;;;;;5017251;28;20088;-82
2023/05/20 12:17:50;;;;;;;3.28;2.03;;;;;;;;;;5016811;28;20021;-79
2023/05/20 12:20:17;;;;;;;3.33;1.98;;;;;;;;;;5019388;28;20103;-82
2023/05/20 12:22:46;;;;;;;2.50;1.98;;;;;;;;;;5015705;28;20049;-82
2023/05/20 12:25:14;;;;;;;3.15;1.92;;;;;;;;;;5021241;28;20038;-81
2023/05/20 12:27:40;;;;;;;2.22;1.88;;;;;;;;;;5016150;28;20080;-81
2023/05/20 12:30:06;;;;;;;2.15;1.63;;;;;;;;;;5021627;28;20220;-81
2023/05/20 12:32:32;;;;;;;3.13;1.92;;;;;;;;;;5027707;28;20021;-83
2023/05/20 12:34:58;;;;;;;3.75;2.00;;;;;;;;;;5024350;28;20048;-82
2023/05/20 12:37:24;;;;;;;3.13;1.80;;;;;;;;;;5026785;28;20044;-84
2023/05/20 12:39:50;;;;;;;3.30;2.28;;;;;;;;;;5021214;28;20025;-83
2023/05/20 12:42:16;;;;;;;2.63;1.70;;;;;;;;;;5021010;28;20036;-80
2023/05/20 12:44:42;;;;;;;3.00;2.22;;;;;;;;;;5015676;28;20368;-79
2023/05/20 12:47:08;;;;;;;3.63;2.10;;;;;;;;;;5002955;28;20719;-79
2023/05/20 12:49:34;;;;;;;2.88;1.80;;;;;;;;;;5017169;28;20048;-77
2023/05/20 12:52:00;;;;;;;4.15;2.08;;;;;;;;;;5021802;28;20396;-84
2023/05/20 12:54:27;;;;;;;3.15;2.00;;;;;;;;;;5018620;28;20344;-83
2023/05/20 12:56:53;;;;;;;3.00;1.60;;;;;;;;;;5007160;28;20022;-84
2023/05/20 12:59:20;;;;;;;1.80;1.70;;;;;;;;;;5018654;28;20078;-82
2023/05/20 13:01:46;;;;;;;3.30;1.70;;;;;;;;;;5018860;28;20116;-83
2023/05/20 13:04:12;;;;;;;2.97;1.73;;;;;;;;;;5025813;28;20222;-83
2023/05/20 13:06:38;;;;;;;3.10;1.77;;;;;;;;;;5021133;28;20507;-86
2023/05/20 13:09:04;;;;;;;2.42;1.58;;;;;;;;;;5018350;28;20049;-86
2023/05/20 13:11:29;;;;;;;2.28;1.98;;;;;;;;;;5024734;28;20095;-87
2023/05/20 13:13:56;;;;;;;3.28;1.55;;;;;;;;;;5024718;28;20038;-87
2023/05/20 13:16:22;;;;;;;4.03;1.80;;;;;;;;;;5026087;28;20684;-86
2023/05/20 13:18:48;;;;;;;4.68;2.28;;;;;;;;;;5023823;28;20037;-87
2023/05/20 13:21:14;;;;;;;3.90;2.28;;;;;;;;;;5022060;28;20565;-86
2023/05/20 13:23:40;;;;;;;2.88;2.25;;;;;;;;;;5027630;28;20036;-85
2023/05/20 13:26:07;;;;;;;2.63;1.70;;;;;;;;;;5028229;28;20428;-85
2023/05/20 13:28:33;;;;;;;3.88;1.90;;;;;;;;;;5024808;28;20033;-85
2023/05/20 13:31:00;;;;;;;3.65;2.08;;;;;;;;;;5025624;28;20021;-85
2023/05/20 13:33:26;;;;;;;2.88;2.17;;;;;;;;;;5027044;28;20048;-83
2023/05/20 13:35:52;;;;;;;2.00;1.65;;;;;;;;;;5026346;28;20705;-87
2023/05/20 13:38:18;;;;;;;3.88;2.50;;;;;;;;;;5005130;28;20032;-87
2023/05/20 13:40:44;;;;;;;3.58;2.25;;;;;;;;;;5024565;28;20483;-87
2023/05/20 13:43:10;;;;;;;1.80;1.55;;;;;;;;;;5024365;28;20075;-84
2023/05/20 13:45:36;;;;;;;2.75;1.83;;;;;;;;;;5027110;28;20045;-85
2023/05/20 13:48:02;;;;;;;3.25;1.98;;;;;;;;;;5007776;28;20437;-86
2023/05/20 13:50:28;;;;;;;3.60;1.98;;;;;;;;;;5028255;28;20030;-85
2023/05/20 13:52:54;;;;;;;2.70;1.63;;;;;;;;;;5023985;28;20021;-85
2023/05/20 13:55:20;;;;;;;6.35;1.95;;;;;;;;;;5026237;28;20388;-85
2023/05/20 13:57:46;;;;;;;3.60;1.80;;;;;;;;;;5025861;28;20032;-84
2023/05/20 14:00:12;;;;;;;2.90;2.03;;;;;;;;;;5009127;28;20056;-87
2023/05/20 14:02:38;;;;;;;4.47;2.30;;;;;;;;;;5025151;28;20029;-87
2023/05/20 14:05:06;;;;;;;7.10;2.70;;;;;;;;;;5024332;28;20428;-84
2023/05/20 14:07:32;;;;;;;3.47;2.00;;;;;;;;;;5026219;28;20029;-85
2023/05/20 14:09:58;;;;;;;3.50;1.98;;;;;;;;;;5026773;28;20108;-83
2023/05/20 14:12:24;;;;;;;3.85;2.00;;;;;;;;;;5024206;28;20072;-83
2023/05/20 14:14:50;;;;;;;2.80;2.30;;;;;;;;;;5026136;28;20100;-83
2023/05/20 14:17:16;;;;;;;3.88;2.30;;;;;;;;;;5024416;28;20604;-84
2023/05/20 14:19:42;;;;;;;2.75;2.25;;;;;;;;;;5023587;28;20061;-83
2023/05/20 14:22:08;;;;;;;2.85;1.90;;;;;;;;;;5006742;28;20060;-83
2023/05/20 14:24:34;;;;;;;2.58;1.80;;;;;;;;;;5023281;28;20911;-82
2023/05/20 14:27:00;;;;;;;3.53;2.00;;;;;;;;;;5025936;28;20071;-86
2023/05/20 14:29:26;;;;;;;3.65;2.30;;;;;;;;;;5023789;28;20927;-84
2023/05/20 14:31:52;;;;;;;2.90;2.00;;;;;;;;;;5026203;28;20028;-84
2023/05/20 14:34:18;;;;;;;3.63;2.10;;;;;;;;;;5025113;28;20022;-83
2023/05/20 14:36:44;;;;;;;2.80;1.75;;;;;;;;;;5027536;28;20041;-84
2023/05/20 14:39:10;;;;;;;3.90;2.55;;;;;;;;;;5022787;28;20034;-83